7QMTA FWLK-FWKI
Flight info
| Callsign | 7QMTA |
|---|---|
| Flight time | 1h 2m |
| Altitude | 8500 |
| Route | DVL |
| Aircraft | C210/L-SDGRY/C |
Departure
| Time | 2026-04-15 09:44 |
|---|---|
| Airport | Likoma Island Airport (FWLK) |
Arrival
| Time | 2026-04-15 10:47 |
|---|---|
| Airport | Kamuzu International Airport (FWKI) |
| Time | Latitude | Longitude | Altitude | Speed | Heading |
|---|---|---|---|---|---|
| 2026-04-15 09:41 | -12.07545 | 34.73732 | 1595 ft | 0 kts | 275° |
| 2026-04-15 09:43 | -12.07550 | 34.73718 | 1595 ft | 5 kts | 251° |
| 2026-04-15 09:43 | -12.07481 | 34.73683 | 1595 ft | 16 kts | 345° |
| 2026-04-15 09:43 | -12.07507 | 34.73695 | 1595 ft | 19 kts | 169° |
| 2026-04-15 09:44 | -12.07789 | 34.73659 | 1595 ft | 64 kts | 187° |
| 2026-04-15 09:44 | -12.08313 | 34.73573 | 1698 ft | 84 kts | 186° |
| 2026-04-15 09:44 | -12.08861 | 34.73445 | 2057 ft | 82 kts | 200° |
| 2026-04-15 09:44 | -12.09338 | 34.73051 | 2413 ft | 87 kts | 214° |
| 2026-04-15 09:45 | -12.09787 | 34.72604 | 2861 ft | 93 kts | 219° |
| 2026-04-15 09:45 | -12.10327 | 34.72131 | 3036 ft | 110 kts | 211° |
| 2026-04-15 09:45 | -12.10928 | 34.71695 | 3370 ft | 107 kts | 212° |
| 2026-04-15 09:45 | -12.11543 | 34.71266 | 3651 ft | 112 kts | 210° |
| 2026-04-15 09:46 | -12.12191 | 34.70776 | 3928 ft | 117 kts | 210° |
| 2026-04-15 09:46 | -12.12856 | 34.70275 | 4211 ft | 122 kts | 213° |
| 2026-04-15 09:46 | -12.13574 | 34.69727 | 4396 ft | 135 kts | 211° |
| 2026-04-15 09:46 | -12.14361 | 34.69155 | 4598 ft | 142 kts | 199° |
| 2026-04-15 09:47 | -12.15160 | 34.68526 | 4812 ft | 146 kts | 212° |
| 2026-04-15 09:47 | -12.15986 | 34.67932 | 5013 ft | 146 kts | 212° |
| 2026-04-15 09:47 | -12.16809 | 34.67337 | 5211 ft | 143 kts | 212° |
| 2026-04-15 09:47 | -12.17621 | 34.66771 | 5405 ft | 140 kts | 210° |
| 2026-04-15 09:48 | -12.18431 | 34.66222 | 5599 ft | 139 kts | 210° |
| 2026-04-15 09:48 | -12.19216 | 34.65651 | 5791 ft | 139 kts | 213° |
| 2026-04-15 09:48 | -12.19987 | 34.65065 | 5985 ft | 137 kts | 213° |
| 2026-04-15 09:48 | -12.20746 | 34.64486 | 6177 ft | 135 kts | 213° |
| 2026-04-15 09:49 | -12.21498 | 34.63910 | 6370 ft | 134 kts | 213° |
| 2026-04-15 09:49 | -12.22231 | 34.63347 | 6561 ft | 133 kts | 213° |
| 2026-04-15 09:49 | -12.22966 | 34.62781 | 6755 ft | 132 kts | 213° |
| 2026-04-15 09:49 | -12.23697 | 34.62216 | 6950 ft | 131 kts | 213° |
| 2026-04-15 09:50 | -12.24426 | 34.61652 | 7146 ft | 131 kts | 213° |
| 2026-04-15 09:50 | -12.25152 | 34.61090 | 7342 ft | 131 kts | 213° |
| 2026-04-15 09:50 | -12.25877 | 34.60526 | 7539 ft | 131 kts | 213° |
| 2026-04-15 09:50 | -12.26599 | 34.59963 | 7737 ft | 130 kts | 213° |
| 2026-04-15 09:51 | -12.27320 | 34.59400 | 7935 ft | 130 kts | 213° |
| 2026-04-15 09:51 | -12.28039 | 34.58838 | 8132 ft | 130 kts | 213° |
| 2026-04-15 09:51 | -12.28759 | 34.58275 | 8331 ft | 130 kts | 213° |
| 2026-04-15 09:51 | -12.29469 | 34.57718 | 8504 ft | 133 kts | 213° |
| 2026-04-15 09:52 | -12.30275 | 34.57149 | 8521 ft | 145 kts | 209° |
| 2026-04-15 09:52 | -12.31147 | 34.56568 | 8519 ft | 154 kts | 209° |
| 2026-04-15 09:52 | -12.32057 | 34.55964 | 8518 ft | 160 kts | 209° |
| 2026-04-15 09:52 | -12.33007 | 34.55345 | 8518 ft | 162 kts | 208° |
| 2026-04-15 09:53 | -12.33978 | 34.54748 | 8514 ft | 164 kts | 207° |
| 2026-04-15 09:53 | -12.34959 | 34.54144 | 8518 ft | 165 kts | 207° |
| 2026-04-15 09:53 | -12.35944 | 34.53539 | 8515 ft | 166 kts | 207° |
| 2026-04-15 09:53 | -12.36939 | 34.52927 | 8516 ft | 168 kts | 207° |
| 2026-04-15 09:54 | -12.37944 | 34.52308 | 8516 ft | 169 kts | 207° |
| 2026-04-15 09:54 | -12.38955 | 34.51685 | 8507 ft | 170 kts | 207° |
| 2026-04-15 09:54 | -12.39970 | 34.51060 | 8492 ft | 170 kts | 208° |
| 2026-04-15 09:54 | -12.40975 | 34.50437 | 8495 ft | 168 kts | 208° |
| 2026-04-15 09:55 | -12.41973 | 34.49819 | 8498 ft | 168 kts | 208° |
| 2026-04-15 09:55 | -12.42971 | 34.49199 | 8497 ft | 168 kts | 208° |
| 2026-04-15 09:55 | -12.43959 | 34.48584 | 8496 ft | 169 kts | 208° |
| 2026-04-15 09:55 | -12.44962 | 34.47961 | 8497 ft | 169 kts | 208° |
| 2026-04-15 09:56 | -12.45970 | 34.47332 | 8498 ft | 169 kts | 208° |
| 2026-04-15 09:56 | -12.46975 | 34.46704 | 8499 ft | 170 kts | 208° |
| 2026-04-15 09:56 | -12.48992 | 34.45443 | 8500 ft | 170 kts | 208° |
| 2026-04-15 09:57 | -12.49998 | 34.44812 | 8500 ft | 170 kts | 208° |
| 2026-04-15 09:57 | -12.51009 | 34.44178 | 8501 ft | 170 kts | 208° |
| 2026-04-15 09:57 | -12.52014 | 34.43546 | 8501 ft | 170 kts | 208° |
| 2026-04-15 09:57 | -12.53022 | 34.42912 | 8501 ft | 170 kts | 208° |
| 2026-04-15 09:58 | -12.54018 | 34.42283 | 8499 ft | 168 kts | 208° |
| 2026-04-15 09:58 | -12.55018 | 34.41650 | 8499 ft | 165 kts | 208° |
| 2026-04-15 09:58 | -12.55989 | 34.41033 | 8495 ft | 163 kts | 208° |
| 2026-04-15 09:58 | -12.56936 | 34.40430 | 8497 ft | 162 kts | 208° |
| 2026-04-15 09:59 | -12.57889 | 34.39821 | 8498 ft | 161 kts | 208° |
| 2026-04-15 09:59 | -12.58834 | 34.39216 | 8497 ft | 160 kts | 208° |
| 2026-04-15 09:59 | -12.59779 | 34.38610 | 8498 ft | 160 kts | 208° |
| 2026-04-15 09:59 | -12.60720 | 34.38005 | 8495 ft | 160 kts | 208° |
| 2026-04-15 10:00 | -12.61661 | 34.37399 | 8497 ft | 159 kts | 208° |
| 2026-04-15 10:00 | -12.62597 | 34.36795 | 8496 ft | 159 kts | 208° |
| 2026-04-15 10:00 | -12.63535 | 34.36189 | 8498 ft | 159 kts | 208° |
| 2026-04-15 10:00 | -12.64472 | 34.35583 | 8497 ft | 159 kts | 208° |
| 2026-04-15 10:01 | -12.65394 | 34.34986 | 8497 ft | 159 kts | 209° |
| 2026-04-15 10:01 | -12.66340 | 34.34372 | 8497 ft | 159 kts | 209° |
| 2026-04-15 10:01 | -12.67263 | 34.33773 | 8497 ft | 159 kts | 209° |
| 2026-04-15 10:01 | -12.68195 | 34.33166 | 8496 ft | 159 kts | 209° |
| 2026-04-15 10:02 | -12.69127 | 34.32558 | 8496 ft | 159 kts | 209° |
| 2026-04-15 10:02 | -12.70059 | 34.31949 | 8496 ft | 159 kts | 209° |
| 2026-04-15 10:02 | -12.70990 | 34.31341 | 8496 ft | 159 kts | 209° |
| 2026-04-15 10:02 | -12.71920 | 34.30732 | 8496 ft | 159 kts | 209° |
| 2026-04-15 10:03 | -12.72850 | 34.30122 | 8496 ft | 159 kts | 209° |
| 2026-04-15 10:03 | -12.73469 | 34.29716 | 8496 ft | 159 kts | 209° |
| 2026-04-15 10:03 | -12.74711 | 34.28899 | 8496 ft | 159 kts | 209° |
| 2026-04-15 10:03 | -12.75630 | 34.28294 | 8496 ft | 159 kts | 209° |
| 2026-04-15 10:04 | -12.76560 | 34.27680 | 8496 ft | 159 kts | 209° |
| 2026-04-15 10:04 | -12.77184 | 34.27267 | 8496 ft | 159 kts | 209° |
| 2026-04-15 10:04 | -12.78421 | 34.26447 | 8505 ft | 162 kts | 210° |
| 2026-04-15 10:04 | -12.79371 | 34.25822 | 8512 ft | 163 kts | 209° |
| 2026-04-15 10:05 | -12.80005 | 34.25403 | 8509 ft | 164 kts | 209° |
| 2026-04-15 10:05 | -12.80960 | 34.24772 | 8510 ft | 162 kts | 209° |
| 2026-04-15 10:05 | -12.81913 | 34.24140 | 8512 ft | 164 kts | 210° |
| 2026-04-15 10:05 | -12.82875 | 34.23503 | 8510 ft | 163 kts | 210° |
| 2026-04-15 10:06 | -12.83821 | 34.22873 | 8507 ft | 162 kts | 210° |
| 2026-04-15 10:06 | -12.84767 | 34.22242 | 8503 ft | 161 kts | 210° |
| 2026-04-15 10:06 | -12.85693 | 34.21623 | 8505 ft | 161 kts | 210° |
| 2026-04-15 10:06 | -12.86632 | 34.20996 | 8504 ft | 161 kts | 210° |
| 2026-04-15 10:07 | -12.87572 | 34.20366 | 8501 ft | 160 kts | 210° |
| 2026-04-15 10:07 | -12.88504 | 34.19739 | 8497 ft | 160 kts | 210° |
| 2026-04-15 10:07 | -12.89437 | 34.19112 | 8498 ft | 160 kts | 210° |
| 2026-04-15 10:07 | -12.90359 | 34.18492 | 8499 ft | 161 kts | 210° |
| 2026-04-15 10:08 | -12.91305 | 34.17855 | 8502 ft | 161 kts | 210° |
| 2026-04-15 10:08 | -12.92233 | 34.17230 | 8503 ft | 162 kts | 210° |
| 2026-04-15 10:08 | -12.93173 | 34.16595 | 8506 ft | 162 kts | 210° |
| 2026-04-15 10:08 | -12.94116 | 34.15957 | 8499 ft | 162 kts | 210° |
| 2026-04-15 10:09 | -12.95053 | 34.15322 | 8498 ft | 161 kts | 210° |
| 2026-04-15 10:09 | -12.95986 | 34.14689 | 8503 ft | 161 kts | 210° |
| 2026-04-15 10:09 | -12.96926 | 34.14049 | 8503 ft | 162 kts | 210° |
| 2026-04-15 10:09 | -12.97861 | 34.13413 | 8505 ft | 162 kts | 210° |
| 2026-04-15 10:10 | -12.98805 | 34.12770 | 8509 ft | 164 kts | 210° |
| 2026-04-15 10:10 | -12.99741 | 34.12132 | 8508 ft | 164 kts | 210° |
| 2026-04-15 10:10 | -13.00700 | 34.11477 | 8508 ft | 163 kts | 210° |
| 2026-04-15 10:10 | -13.01624 | 34.10843 | 8504 ft | 161 kts | 210° |
| 2026-04-15 10:11 | -13.02563 | 34.10198 | 8502 ft | 161 kts | 210° |
| 2026-04-15 10:11 | -13.03490 | 34.09561 | 8504 ft | 161 kts | 210° |
| 2026-04-15 10:11 | -13.04426 | 34.08918 | 8507 ft | 163 kts | 210° |
| 2026-04-15 10:11 | -13.05373 | 34.08266 | 8511 ft | 165 kts | 210° |
| 2026-04-15 10:12 | -13.06323 | 34.07614 | 8507 ft | 162 kts | 211° |
| 2026-04-15 10:12 | -13.07262 | 34.06966 | 8504 ft | 163 kts | 210° |
| 2026-04-15 10:12 | -13.08202 | 34.06318 | 8508 ft | 164 kts | 210° |
| 2026-04-15 10:12 | -13.09142 | 34.05668 | 8511 ft | 163 kts | 211° |
| 2026-04-15 10:13 | -13.10083 | 34.05016 | 8514 ft | 164 kts | 211° |
| 2026-04-15 10:13 | -13.11027 | 34.04361 | 8516 ft | 164 kts | 211° |
| 2026-04-15 10:13 | -13.11975 | 34.03704 | 8508 ft | 164 kts | 211° |
| 2026-04-15 10:13 | -13.12919 | 34.03047 | 8505 ft | 163 kts | 211° |
| 2026-04-15 10:14 | -13.13854 | 34.02395 | 8502 ft | 164 kts | 211° |
| 2026-04-15 10:14 | -13.14796 | 34.01737 | 8501 ft | 162 kts | 211° |
| 2026-04-15 10:14 | -13.15726 | 34.01086 | 8497 ft | 161 kts | 211° |
| 2026-04-15 10:14 | -13.16653 | 34.00436 | 8505 ft | 162 kts | 211° |
| 2026-04-15 10:15 | -13.17579 | 33.99788 | 8496 ft | 162 kts | 211° |
| 2026-04-15 10:15 | -13.18508 | 33.99136 | 8501 ft | 163 kts | 211° |
| 2026-04-15 10:15 | -13.19443 | 33.98480 | 8504 ft | 162 kts | 211° |
| 2026-04-15 10:15 | -13.20377 | 33.97823 | 8504 ft | 163 kts | 211° |
| 2026-04-15 10:16 | -13.21311 | 33.97165 | 8503 ft | 163 kts | 211° |
| 2026-04-15 10:16 | -13.22248 | 33.96505 | 8506 ft | 163 kts | 211° |
| 2026-04-15 10:16 | -13.23186 | 33.95843 | 8508 ft | 164 kts | 211° |
| 2026-04-15 10:16 | -13.24117 | 33.95186 | 8504 ft | 162 kts | 211° |
| 2026-04-15 10:17 | -13.25042 | 33.94532 | 8509 ft | 162 kts | 211° |
| 2026-04-15 10:17 | -13.25977 | 33.93869 | 8513 ft | 163 kts | 212° |
| 2026-04-15 10:17 | -13.26907 | 33.93212 | 8508 ft | 161 kts | 211° |
| 2026-04-15 10:17 | -13.27828 | 33.92558 | 8507 ft | 161 kts | 211° |
| 2026-04-15 10:18 | -13.28755 | 33.91899 | 8512 ft | 162 kts | 211° |
| 2026-04-15 10:18 | -13.29687 | 33.91235 | 8513 ft | 163 kts | 211° |
| 2026-04-15 10:18 | -13.30608 | 33.90579 | 8514 ft | 163 kts | 211° |
| 2026-04-15 10:18 | -13.31532 | 33.89918 | 8502 ft | 161 kts | 211° |
| 2026-04-15 10:19 | -13.32446 | 33.89260 | 8506 ft | 161 kts | 212° |
| 2026-04-15 10:19 | -13.33354 | 33.88593 | 8496 ft | 160 kts | 213° |
| 2026-04-15 10:19 | -13.34257 | 33.87900 | 8423 ft | 166 kts | 213° |
| 2026-04-15 10:19 | -13.35194 | 33.87179 | 8331 ft | 168 kts | 214° |
| 2026-04-15 10:20 | -13.36153 | 33.86490 | 8227 ft | 168 kts | 204° |
| 2026-04-15 10:20 | -13.37239 | 33.86069 | 8135 ft | 166 kts | 195° |
| 2026-04-15 10:20 | -13.38295 | 33.85660 | 8059 ft | 162 kts | 199° |
| 2026-04-15 10:20 | -13.39323 | 33.85208 | 7983 ft | 160 kts | 200° |
| 2026-04-15 10:21 | -13.40337 | 33.84753 | 7893 ft | 158 kts | 200° |
| 2026-04-15 10:21 | -13.41340 | 33.84303 | 7811 ft | 157 kts | 200° |
| 2026-04-15 10:21 | -13.42346 | 33.83851 | 7727 ft | 156 kts | 200° |
| 2026-04-15 10:21 | -13.43328 | 33.83409 | 7638 ft | 153 kts | 200° |
| 2026-04-15 10:22 | -13.44287 | 33.82979 | 7563 ft | 152 kts | 200° |
| 2026-04-15 10:22 | -13.45259 | 33.82542 | 7487 ft | 152 kts | 200° |
| 2026-04-15 10:22 | -13.46229 | 33.82108 | 7408 ft | 152 kts | 200° |
| 2026-04-15 10:22 | -13.47200 | 33.81671 | 7327 ft | 151 kts | 200° |
| 2026-04-15 10:23 | -13.48161 | 33.81239 | 7251 ft | 151 kts | 200° |
| 2026-04-15 10:23 | -13.49118 | 33.80808 | 7174 ft | 150 kts | 200° |
| 2026-04-15 10:23 | -13.50067 | 33.80382 | 7100 ft | 148 kts | 199° |
| 2026-04-15 10:23 | -13.50694 | 33.80101 | 7051 ft | 150 kts | 199° |
| 2026-04-15 10:24 | -13.51983 | 33.79522 | 6949 ft | 150 kts | 200° |
| 2026-04-15 10:24 | -13.52939 | 33.79092 | 6882 ft | 150 kts | 200° |
| 2026-04-15 10:24 | -13.53890 | 33.78665 | 6811 ft | 151 kts | 200° |
| 2026-04-15 10:24 | -13.54864 | 33.78227 | 6742 ft | 154 kts | 200° |
| 2026-04-15 10:25 | -13.55834 | 33.77789 | 6666 ft | 152 kts | 200° |
| 2026-04-15 10:25 | -13.56802 | 33.77355 | 6586 ft | 151 kts | 200° |
| 2026-04-15 10:25 | -13.57768 | 33.76920 | 6512 ft | 152 kts | 200° |
| 2026-04-15 10:25 | -13.58726 | 33.76488 | 6431 ft | 148 kts | 199° |
| 2026-04-15 10:26 | -13.59677 | 33.76062 | 6339 ft | 146 kts | 199° |
| 2026-04-15 10:26 | -13.60614 | 33.75640 | 6271 ft | 148 kts | 200° |
| 2026-04-15 10:26 | -13.61554 | 33.75218 | 6188 ft | 147 kts | 200° |
| 2026-04-15 10:26 | -13.62483 | 33.74800 | 6118 ft | 147 kts | 200° |
| 2026-04-15 10:27 | -13.63420 | 33.74378 | 6043 ft | 147 kts | 199° |
| 2026-04-15 10:27 | -13.64357 | 33.73957 | 5974 ft | 148 kts | 200° |
| 2026-04-15 10:27 | -13.65290 | 33.73536 | 5896 ft | 147 kts | 200° |
| 2026-04-15 10:27 | -13.66228 | 33.73113 | 5813 ft | 147 kts | 199° |
| 2026-04-15 10:28 | -13.67160 | 33.72695 | 5729 ft | 145 kts | 199° |
| 2026-04-15 10:28 | -13.68083 | 33.72279 | 5659 ft | 145 kts | 199° |
| 2026-04-15 10:28 | -13.69016 | 33.71861 | 5586 ft | 146 kts | 200° |
| 2026-04-15 10:28 | -13.69949 | 33.71439 | 5510 ft | 146 kts | 200° |
| 2026-04-15 10:29 | -13.70880 | 33.71020 | 5442 ft | 146 kts | 199° |
| 2026-04-15 10:29 | -13.71817 | 33.70621 | 5357 ft | 144 kts | 192° |
| 2026-04-15 10:29 | -13.72776 | 33.70702 | 5254 ft | 139 kts | 150° |
| 2026-04-15 10:29 | -13.73456 | 33.71359 | 5215 ft | 132 kts | 126° |
| 2026-04-15 10:30 | -13.74025 | 33.72070 | 5206 ft | 129 kts | 127° |
| 2026-04-15 10:30 | -13.74592 | 33.72766 | 5191 ft | 125 kts | 127° |
| 2026-04-15 10:30 | -13.75146 | 33.73444 | 5194 ft | 122 kts | 127° |
| 2026-04-15 10:30 | -13.75687 | 33.74108 | 5199 ft | 120 kts | 127° |
| 2026-04-15 10:31 | -13.76222 | 33.74762 | 5194 ft | 119 kts | 126° |
| 2026-04-15 10:31 | -13.76750 | 33.75409 | 5192 ft | 118 kts | 126° |
| 2026-04-15 10:31 | -13.77282 | 33.76062 | 5199 ft | 118 kts | 126° |
| 2026-04-15 10:31 | -13.77814 | 33.76714 | 5207 ft | 120 kts | 126° |
| 2026-04-15 10:32 | -13.78345 | 33.77364 | 5210 ft | 121 kts | 127° |
| 2026-04-15 10:32 | -13.78887 | 33.78029 | 5213 ft | 122 kts | 127° |
| 2026-04-15 10:32 | -13.79433 | 33.78698 | 5215 ft | 122 kts | 127° |
| 2026-04-15 10:32 | -13.79984 | 33.79373 | 5204 ft | 122 kts | 126° |
| 2026-04-15 10:33 | -13.80529 | 33.80040 | 5208 ft | 121 kts | 127° |
| 2026-04-15 10:33 | -13.81071 | 33.80703 | 5208 ft | 121 kts | 126° |
| 2026-04-15 10:33 | -13.81607 | 33.81360 | 5202 ft | 119 kts | 127° |
| 2026-04-15 10:33 | -13.82143 | 33.82017 | 5197 ft | 120 kts | 126° |
| 2026-04-15 10:34 | -13.82670 | 33.82663 | 5204 ft | 118 kts | 126° |
| 2026-04-15 10:34 | -13.83196 | 33.83308 | 5199 ft | 117 kts | 127° |
| 2026-04-15 10:34 | -13.83721 | 33.83951 | 5192 ft | 117 kts | 126° |
| 2026-04-15 10:34 | -13.84236 | 33.84583 | 5189 ft | 113 kts | 126° |
| 2026-04-15 10:35 | -13.84737 | 33.85198 | 5197 ft | 113 kts | 126° |
| 2026-04-15 10:35 | -13.85247 | 33.85824 | 5200 ft | 116 kts | 126° |
| 2026-04-15 10:35 | -13.85766 | 33.86460 | 5202 ft | 115 kts | 127° |
| 2026-04-15 10:35 | -13.86283 | 33.87093 | 5204 ft | 116 kts | 127° |
| 2026-04-15 10:36 | -13.86803 | 33.87731 | 5211 ft | 117 kts | 127° |
| 2026-04-15 10:36 | -13.87329 | 33.88376 | 5209 ft | 117 kts | 127° |
| 2026-04-15 10:36 | -13.87940 | 33.88974 | 5184 ft | 134 kts | 154° |
| 2026-04-15 10:36 | -13.88889 | 33.88799 | 5206 ft | 157 kts | 215° |
| 2026-04-15 10:37 | -13.89351 | 33.87759 | 5212 ft | 172 kts | 270° |
| 2026-04-15 10:37 | -13.88892 | 33.86625 | 5230 ft | 176 kts | 308° |
| 2026-04-15 10:37 | -13.88140 | 33.85589 | 5223 ft | 184 kts | 309° |
| 2026-04-15 10:37 | -13.87367 | 33.84524 | 5215 ft | 186 kts | 309° |
| 2026-04-15 10:38 | -13.86591 | 33.83457 | 5208 ft | 188 kts | 309° |
| 2026-04-15 10:38 | -13.85804 | 33.82389 | 5217 ft | 187 kts | 310° |
| 2026-04-15 10:38 | -13.85000 | 33.81325 | 5214 ft | 188 kts | 310° |
| 2026-04-15 10:38 | -13.84191 | 33.80259 | 5211 ft | 190 kts | 310° |
| 2026-04-15 10:39 | -13.83377 | 33.79186 | 5210 ft | 191 kts | 315° |
| 2026-04-15 10:39 | -13.82574 | 33.78096 | 5207 ft | 191 kts | 307° |
| 2026-04-15 10:39 | -13.81742 | 33.77043 | 5201 ft | 193 kts | 310° |
| 2026-04-15 10:39 | -13.80884 | 33.75983 | 5201 ft | 193 kts | 310° |
| 2026-04-15 10:40 | -13.80014 | 33.74908 | 5202 ft | 195 kts | 310° |
| 2026-04-15 10:40 | -13.79147 | 33.73842 | 5203 ft | 193 kts | 310° |
| 2026-04-15 10:40 | -13.78280 | 33.72775 | 5206 ft | 195 kts | 310° |
| 2026-04-15 10:40 | -13.77405 | 33.71701 | 5165 ft | 198 kts | 310° |
| 2026-04-15 10:41 | -13.76627 | 33.70748 | 5193 ft | 195 kts | 310° |
| 2026-04-15 10:41 | -13.75766 | 33.69696 | 5196 ft | 195 kts | 310° |
| 2026-04-15 10:41 | -13.74889 | 33.68624 | 5195 ft | 196 kts | 310° |
| 2026-04-15 10:41 | -13.73977 | 33.67591 | 5187 ft | 194 kts | 322° |
| 2026-04-15 10:42 | -13.72790 | 33.67063 | 5181 ft | 181 kts | 356° |
| 2026-04-15 10:42 | -13.71645 | 33.67257 | 5182 ft | 158 kts | 33° |
| 2026-04-15 10:42 | -13.71114 | 33.68020 | 5092 ft | 122 kts | 92° |
| 2026-04-15 10:42 | -13.71319 | 33.68783 | 5111 ft | 101 kts | 113° |
| 2026-04-15 10:43 | -13.71633 | 33.69451 | 5158 ft | 103 kts | 119° |
| 2026-04-15 10:43 | -13.72130 | 33.69952 | 5168 ft | 108 kts | 145° |
| 2026-04-15 10:43 | -13.72707 | 33.70465 | 5136 ft | 113 kts | 130° |
| 2026-04-15 10:43 | -13.73201 | 33.71090 | 5038 ft | 112 kts | 130° |
| 2026-04-15 10:44 | -13.73667 | 33.71655 | 5133 ft | 97 kts | 130° |
| 2026-04-15 10:44 | -13.74114 | 33.72194 | 5071 ft | 100 kts | 130° |
| 2026-04-15 10:44 | -13.74563 | 33.72739 | 5019 ft | 99 kts | 130° |
| 2026-04-15 10:44 | -13.75003 | 33.73274 | 4964 ft | 100 kts | 130° |
| 2026-04-15 10:45 | -13.75440 | 33.73808 | 4850 ft | 95 kts | 130° |
| 2026-04-15 10:45 | -13.75841 | 33.74298 | 4683 ft | 85 kts | 130° |
| 2026-04-15 10:45 | -13.76210 | 33.74749 | 4515 ft | 80 kts | 130° |
| 2026-04-15 10:45 | -13.76562 | 33.75181 | 4344 ft | 78 kts | 130° |
| 2026-04-15 10:46 | -13.76910 | 33.75607 | 4289 ft | 77 kts | 130° |
| 2026-04-15 10:46 | -13.77257 | 33.76032 | 4227 ft | 79 kts | 130° |
| 2026-04-15 10:46 | -13.77615 | 33.76482 | 4128 ft | 81 kts | 132° |
| 2026-04-15 10:46 | -13.77961 | 33.76898 | 4038 ft | 74 kts | 133° |
| 2026-04-15 10:47 | -13.78258 | 33.77292 | 4024 ft | 65 kts | 134° |
| 2026-04-15 10:47 | -13.78487 | 33.77555 | 4025 ft | 27 kts | 116° |
| 2026-04-15 10:47 | -13.78460 | 33.77663 | 4026 ft | 15 kts | 49° |
| 2026-04-15 10:47 | -13.78355 | 33.77750 | 4026 ft | 25 kts | 39° |
| 2026-04-15 10:48 | -13.78182 | 33.77896 | 4025 ft | 33 kts | 36° |
| 2026-04-15 10:48 | -13.78162 | 33.77980 | 4026 ft | 0 kts | 130° |